This is the latest recevied weather packets stored in our database for station/object W7TTE. If no packets are shown the sender has not sent any weather packets the latest 1 day(s).
| Time | Temp. | Humidity | Pressure | Rain* | Wind** | Luminosity | Snow |
|---|---|---|---|---|---|---|---|
| 1778022128 | 25.56° C | 26% | 1011.8 hPa | 0 mm | 3.58 m/s, 155° | 448 W/m² | - |
| 1778021824 | 26.11° C | 27% | 1011.9 hPa | 0 mm | 2.68 m/s, 147° | 462 W/m² | - |
| 1778021521 | 25.56° C | 26% | 1011.9 hPa | 0 mm | 1.79 m/s, 203° | 486 W/m² | - |
| 1778021216 | 26.11° C | 26% | 1012.2 hPa | 0 mm | 2.24 m/s, 221° | 523 W/m² | - |
| 1778020915 | 26.11° C | 27% | 1012 hPa | 0 mm | 1.79 m/s, 162° | 522 W/m² | - |
| 1778020612 | 26.11° C | 28% | 1012.4 hPa | 0 mm | 2.68 m/s, 243° | 124 W/m² | - |
| 1778020308 | 26.11° C | 27% | 1012.3 hPa | 0 mm | 4.02 m/s, 202° | 567 W/m² | - |
| 1778020004 | 25.56° C | 27% | 1012.3 hPa | 0 mm | 1.79 m/s, 179° | 361 W/m² | - |
| 1778019700 | 25.56° C | 27% | 1012.3 hPa | 0 mm | 2.24 m/s, 194° | 607 W/m² | - |
| 1778019398 | 26.67° C | 26% | 1012.5 hPa | 0 mm | 3.58 m/s, 230° | 564 W/m² | - |
| 1778019094 | 25.56° C | 27% | 1012.3 hPa | 0 mm | 1.79 m/s, 219° | 666 W/m² | - |
| 1778018792 | 24.44° C | 29% | 1012.7 hPa | 0 mm | 1.79 m/s, 238° | 428 W/m² | - |
| 1778018489 | 25° C | 28% | 1012.5 hPa | 0 mm | 1.79 m/s, 170° | 211 W/m² | - |
| 1778018187 | 25° C | 28% | 1012.9 hPa | 0 mm | 1.79 m/s, 218° | 221 W/m² | - |
| 1778017885 | 25° C | 27% | 1012.8 hPa | 0 mm | 1.79 m/s, 214° | 181 W/m² | - |
| 1778017582 | 25.56° C | 27% | 1012.8 hPa | 0 mm | 2.24 m/s, 266° | 726 W/m² | - |
| 1778017279 | 25.56° C | 27% | 1012.9 hPa | 0 mm | 2.24 m/s, 116° | 740 W/m² | - |
| 1778016977 | 25° C | 26% | 1012.7 hPa | 0 mm | 2.24 m/s, 198° | 784 W/m² | - |
| 1778016673 | 25° C | 27% | 1012.8 hPa | 0 mm | 2.24 m/s, 186° | 824 W/m² | - |
| 1778016369 | 25° C | 29% | 1012.8 hPa | 0 mm | 1.79 m/s, 203° | 206 W/m² | - |
| 1778016068 | 25.56° C | 28% | 1013.1 hPa | 0 mm | 4.02 m/s, 156° | 804 W/m² | - |
| 1778015764 | 25.56° C | 28% | 1013 hPa | 0 mm | 3.58 m/s, 181° | 784 W/m² | - |
| 1778015461 | 25° C | 30% | 1013.1 hPa | 0 mm | 2.68 m/s, 147° | 259 W/m² | - |
| 1778015157 | 25° C | 29% | 1013.1 hPa | 0 mm | 2.24 m/s, 223° | 486 W/m² | - |
| 1778014855 | 24.44° C | 30% | 1013.4 hPa | 0 mm | 2.24 m/s, 156° | 314 W/m² | - |
* Rain latest hour (hover to see other rain measurements)
** Current wind speed in m/s (hover to see current wind gust speed)